sensor_id;sensor_type;location;lat;lon;timestamp;P1;durP1;ratioP1;P2;durP2;ratioP2
73170;SDS011;61381;50.118;19.962;2022-07-09T00:03:40;12.43;;;6.25;;
73170;SDS011;61381;50.118;19.962;2022-07-09T00:08:40;13.20;;;6.38;;
73170;SDS011;61381;50.118;19.962;2022-07-09T00:13:41;8.55;;;5.68;;
73170;SDS011;61381;50.118;19.962;2022-07-09T00:18:42;10.93;;;5.88;;
73170;SDS011;61381;50.118;19.962;2022-07-09T00:23:42;9.45;;;6.25;;
73170;SDS011;61381;50.118;19.962;2022-07-09T00:28:43;11.38;;;6.95;;
73170;SDS011;61381;50.118;19.962;2022-07-09T00:33:44;10.90;;;6.40;;
73170;SDS011;61381;50.118;19.962;2022-07-09T00:38:44;10.38;;;6.60;;
73170;SDS011;61381;50.118;19.962;2022-07-09T00:43:46;10.07;;;6.40;;
73170;SDS011;61381;50.118;19.962;2022-07-09T00:48:47;14.57;;;6.78;;
73170;SDS011;61381;50.118;19.962;2022-07-09T00:53:48;15.52;;;6.65;;
73170;SDS011;61381;50.118;19.962;2022-07-09T00:58:50;12.07;;;6.32;;
73170;SDS011;61381;50.118;19.962;2022-07-09T01:03:51;9.50;;;5.78;;
73170;SDS011;61381;50.118;19.962;2022-07-09T01:08:52;14.05;;;5.72;;
73170;SDS011;61381;50.118;19.962;2022-07-09T01:13:53;9.48;;;5.63;;
73170;SDS011;61381;50.118;19.962;2022-07-09T01:18:53;11.55;;;5.32;;
73170;SDS011;61381;50.118;19.962;2022-07-09T01:23:54;9.53;;;6.17;;
73170;SDS011;61381;50.118;19.962;2022-07-09T01:28:54;8.73;;;5.60;;
73170;SDS011;61381;50.118;19.962;2022-07-09T01:33:55;12.15;;;6.20;;
73170;SDS011;61381;50.118;19.962;2022-07-09T01:38:55;9.20;;;5.17;;
73170;SDS011;61381;50.118;19.962;2022-07-09T01:43:56;8.75;;;5.47;;
73170;SDS011;61381;50.118;19.962;2022-07-09T01:48:57;11.17;;;6.13;;
73170;SDS011;61381;50.118;19.962;2022-07-09T01:53:58;9.48;;;5.25;;
73170;SDS011;61381;50.118;19.962;2022-07-09T01:58:58;9.73;;;5.55;;
73170;SDS011;61381;50.118;19.962;2022-07-09T02:03:59;10.02;;;5.50;;
73170;SDS011;61381;50.118;19.962;2022-07-09T02:08:59;13.63;;;5.00;;
73170;SDS011;61381;50.118;19.962;2022-07-09T02:14:00;9.88;;;4.80;;
73170;SDS011;61381;50.118;19.962;2022-07-09T02:19:00;10.18;;;5.47;;
73170;SDS011;61381;50.118;19.962;2022-07-09T02:24:01;9.32;;;5.18;;
73170;SDS011;61381;50.118;19.962;2022-07-09T02:29:01;8.85;;;5.30;;
73170;SDS011;61381;50.118;19.962;2022-07-09T02:34:02;15.68;;;5.88;;
73170;SDS011;61381;50.118;19.962;2022-07-09T02:39:03;10.57;;;5.40;;
73170;SDS011;61381;50.118;19.962;2022-07-09T02:44:04;11.13;;;6.15;;
73170;SDS011;61381;50.118;19.962;2022-07-09T02:49:04;11.48;;;6.32;;
73170;SDS011;61381;50.118;19.962;2022-07-09T02:54:05;11.93;;;6.40;;
73170;SDS011;61381;50.118;19.962;2022-07-09T02:59:06;12.95;;;6.72;;
73170;SDS011;61381;50.118;19.962;2022-07-09T03:04:07;14.70;;;6.93;;
73170;SDS011;61381;50.118;19.962;2022-07-09T03:09:07;12.05;;;7.05;;
73170;SDS011;61381;50.118;19.962;2022-07-09T03:14:08;14.23;;;7.03;;
73170;SDS011;61381;50.118;19.962;2022-07-09T03:19:08;14.18;;;6.82;;
73170;SDS011;61381;50.118;19.962;2022-07-09T03:24:09;13.55;;;6.75;;
73170;SDS011;61381;50.118;19.962;2022-07-09T03:29:09;15.13;;;7.57;;
73170;SDS011;61381;50.118;19.962;2022-07-09T03:34:10;14.65;;;7.70;;
73170;SDS011;61381;50.118;19.962;2022-07-09T03:39:10;12.60;;;7.33;;
73170;SDS011;61381;50.118;19.962;2022-07-09T03:44:11;12.07;;;7.22;;
73170;SDS011;61381;50.118;19.962;2022-07-09T03:49:12;20.20;;;9.23;;
73170;SDS011;61381;50.118;19.962;2022-07-09T03:54:13;12.80;;;8.00;;
73170;SDS011;61381;50.118;19.962;2022-07-09T03:59:13;13.85;;;7.63;;
73170;SDS011;61381;50.118;19.962;2022-07-09T04:04:14;14.97;;;7.57;;
73170;SDS011;61381;50.118;19.962;2022-07-09T04:09:14;11.77;;;6.85;;
73170;SDS011;61381;50.118;19.962;2022-07-09T04:14:15;11.13;;;6.50;;
73170;SDS011;61381;50.118;19.962;2022-07-09T04:19:15;14.35;;;7.43;;
73170;SDS011;61381;50.118;19.962;2022-07-09T04:24:16;11.95;;;6.60;;
73170;SDS011;61381;50.118;19.962;2022-07-09T04:29:16;13.20;;;7.93;;
73170;SDS011;61381;50.118;19.962;2022-07-09T04:34:17;9.20;;;5.43;;
73170;SDS011;61381;50.118;19.962;2022-07-09T04:39:17;8.93;;;5.87;;
73170;SDS011;61381;50.118;19.962;2022-07-09T04:44:18;10.50;;;5.30;;
73170;SDS011;61381;50.118;19.962;2022-07-09T04:49:19;10.40;;;4.90;;
73170;SDS011;61381;50.118;19.962;2022-07-09T04:54:19;9.00;;;4.77;;
73170;SDS011;61381;50.118;19.962;2022-07-09T04:59:20;9.50;;;4.68;;
73170;SDS011;61381;50.118;19.962;2022-07-09T05:04:21;9.60;;;4.30;;
73170;SDS011;61381;50.118;19.962;2022-07-09T05:09:21;7.65;;;4.30;;
73170;SDS011;61381;50.118;19.962;2022-07-09T05:14:22;8.25;;;4.82;;
73170;SDS011;61381;50.118;19.962;2022-07-09T05:19:22;6.47;;;3.70;;
73170;SDS011;61381;50.118;19.962;2022-07-09T05:24:23;7.78;;;3.70;;
73170;SDS011;61381;50.118;19.962;2022-07-09T05:29:23;6.85;;;3.53;;
73170;SDS011;61381;50.118;19.962;2022-07-09T05:34:24;8.73;;;3.97;;
73170;SDS011;61381;50.118;19.962;2022-07-09T05:39:25;7.25;;;3.22;;
73170;SDS011;61381;50.118;19.962;2022-07-09T05:44:26;5.40;;;2.85;;
73170;SDS011;61381;50.118;19.962;2022-07-09T05:49:26;4.03;;;2.92;;
73170;SDS011;61381;50.118;19.962;2022-07-09T05:54:27;5.70;;;2.90;;
73170;SDS011;61381;50.118;19.962;2022-07-09T05:59:28;9.20;;;3.70;;
73170;SDS011;61381;50.118;19.962;2022-07-09T06:04:28;6.97;;;3.38;;
73170;SDS011;61381;50.118;19.962;2022-07-09T06:09:29;6.05;;;3.15;;
73170;SDS011;61381;50.118;19.962;2022-07-09T06:14:30;8.97;;;3.73;;
73170;SDS011;61381;50.118;19.962;2022-07-09T06:19:30;5.93;;;3.47;;
73170;SDS011;61381;50.118;19.962;2022-07-09T06:24:35;8.07;;;2.47;;
73170;SDS011;61381;50.118;19.962;2022-07-09T06:29:35;4.05;;;1.90;;
73170;SDS011;61381;50.118;19.962;2022-07-09T06:34:36;4.27;;;1.90;;
73170;SDS011;61381;50.118;19.962;2022-07-09T06:39:36;2.92;;;1.88;;
73170;SDS011;61381;50.118;19.962;2022-07-09T06:44:37;5.63;;;2.22;;
73170;SDS011;61381;50.118;19.962;2022-07-09T06:49:39;3.60;;;2.33;;
73170;SDS011;61381;50.118;19.962;2022-07-09T06:54:40;4.40;;;2.10;;
73170;SDS011;61381;50.118;19.962;2022-07-09T06:59:40;4.93;;;2.10;;
73170;SDS011;61381;50.118;19.962;2022-07-09T07:04:41;2.95;;;1.95;;
73170;SDS011;61381;50.118;19.962;2022-07-09T07:09:42;2.72;;;1.35;;
73170;SDS011;61381;50.118;19.962;2022-07-09T07:14:42;4.50;;;1.55;;
73170;SDS011;61381;50.118;19.962;2022-07-09T07:19:43;3.00;;;1.42;;
73170;SDS011;61381;50.118;19.962;2022-07-09T07:24:44;5.20;;;1.70;;
73170;SDS011;61381;50.118;19.962;2022-07-09T07:29:44;3.22;;;1.40;;
73170;SDS011;61381;50.118;19.962;2022-07-09T07:34:45;3.03;;;1.80;;
73170;SDS011;61381;50.118;19.962;2022-07-09T07:39:46;2.60;;;1.30;;
73170;SDS011;61381;50.118;19.962;2022-07-09T07:44:46;3.70;;;1.60;;
73170;SDS011;61381;50.118;19.962;2022-07-09T07:49:47;3.75;;;1.63;;
73170;SDS011;61381;50.118;19.962;2022-07-09T07:54:48;5.97;;;2.00;;
73170;SDS011;61381;50.118;19.962;2022-07-09T07:59:48;8.45;;;2.40;;
73170;SDS011;61381;50.118;19.962;2022-07-09T08:04:49;5.03;;;2.03;;
73170;SDS011;61381;50.118;19.962;2022-07-09T08:09:49;4.65;;;2.15;;
73170;SDS011;61381;50.118;19.962;2022-07-09T08:14:50;4.35;;;2.53;;
73170;SDS011;61381;50.118;19.962;2022-07-09T08:19:50;6.57;;;2.57;;
73170;SDS011;61381;50.118;19.962;2022-07-09T08:24:51;4.47;;;2.47;;
73170;SDS011;61381;50.118;19.962;2022-07-09T08:29:52;3.00;;;2.40;;
73170;SDS011;61381;50.118;19.962;2022-07-09T08:34:53;5.18;;;2.90;;
73170;SDS011;61381;50.118;19.962;2022-07-09T08:39:54;5.75;;;2.40;;
73170;SDS011;61381;50.118;19.962;2022-07-09T08:44:54;5.75;;;2.90;;
73170;SDS011;61381;50.118;19.962;2022-07-09T08:49:56;4.63;;;2.33;;
73170;SDS011;61381;50.118;19.962;2022-07-09T08:54:59;5.15;;;2.30;;
73170;SDS011;61381;50.118;19.962;2022-07-09T09:00:00;5.65;;;2.42;;
73170;SDS011;61381;50.118;19.962;2022-07-09T09:05:05;4.55;;;2.85;;
73170;SDS011;61381;50.118;19.962;2022-07-09T09:10:22;4.07;;;2.40;;
73170;SDS011;61381;50.118;19.962;2022-07-09T09:15:24;3.47;;;2.30;;
73170;SDS011;61381;50.118;19.962;2022-07-09T09:20:25;4.15;;;2.47;;
73170;SDS011;61381;50.118;19.962;2022-07-09T09:25:26;5.05;;;2.78;;
73170;SDS011;61381;50.118;19.962;2022-07-09T09:30:27;6.30;;;3.03;;
73170;SDS011;61381;50.118;19.962;2022-07-09T09:35:32;4.38;;;2.42;;
73170;SDS011;61381;50.118;19.962;2022-07-09T09:40:35;4.55;;;2.13;;
73170;SDS011;61381;50.118;19.962;2022-07-09T09:45:36;3.10;;;2.30;;
73170;SDS011;61381;50.118;19.962;2022-07-09T09:50:37;3.05;;;2.30;;
73170;SDS011;61381;50.118;19.962;2022-07-09T09:55:37;3.55;;;3.00;;
73170;SDS011;61381;50.118;19.962;2022-07-09T10:00:38;4.13;;;2.80;;
73170;SDS011;61381;50.118;19.962;2022-07-09T10:05:39;4.10;;;2.80;;
73170;SDS011;61381;50.118;19.962;2022-07-09T10:10:49;3.75;;;2.60;;
73170;SDS011;61381;50.118;19.962;2022-07-09T10:15:50;3.50;;;2.53;;
73170;SDS011;61381;50.118;19.962;2022-07-09T10:20:55;4.32;;;2.90;;
73170;SDS011;61381;50.118;19.962;2022-07-09T10:25:56;3.35;;;2.30;;
73170;SDS011;61381;50.118;19.962;2022-07-09T10:31:06;5.30;;;2.53;;
73170;SDS011;61381;50.118;19.962;2022-07-09T10:36:10;3.38;;;2.30;;
73170;SDS011;61381;50.118;19.962;2022-07-09T10:41:20;3.80;;;2.45;;
73170;SDS011;61381;50.118;19.962;2022-07-09T10:46:22;3.83;;;2.20;;
73170;SDS011;61381;50.118;19.962;2022-07-09T10:51:22;5.85;;;2.33;;
73170;SDS011;61381;50.118;19.962;2022-07-09T10:56:23;3.85;;;2.22;;
73170;SDS011;61381;50.118;19.962;2022-07-09T11:01:24;2.95;;;1.85;;
73170;SDS011;61381;50.118;19.962;2022-07-09T11:06:25;3.83;;;2.58;;
73170;SDS011;61381;50.118;19.962;2022-07-09T11:11:26;3.75;;;2.40;;
73170;SDS011;61381;50.118;19.962;2022-07-09T11:16:26;3.88;;;2.30;;
73170;SDS011;61381;50.118;19.962;2022-07-09T11:21:27;3.05;;;2.30;;
73170;SDS011;61381;50.118;19.962;2022-07-09T11:26:27;5.63;;;2.28;;
73170;SDS011;61381;50.118;19.962;2022-07-09T11:31:28;4.05;;;2.17;;
73170;SDS011;61381;50.118;19.962;2022-07-09T11:36:35;3.65;;;2.50;;
73170;SDS011;61381;50.118;19.962;2022-07-09T11:41:43;4.28;;;2.00;;
73170;SDS011;61381;50.118;19.962;2022-07-09T11:46:45;3.25;;;2.25;;
73170;SDS011;61381;50.118;19.962;2022-07-09T11:51:46;3.40;;;2.28;;
73170;SDS011;61381;50.118;19.962;2022-07-09T11:56:46;4.25;;;2.60;;
73170;SDS011;61381;50.118;19.962;2022-07-09T12:01:47;3.08;;;1.90;;
73170;SDS011;61381;50.118;19.962;2022-07-09T12:06:48;2.27;;;1.67;;
73170;SDS011;61381;50.118;19.962;2022-07-09T12:11:50;3.75;;;1.98;;
73170;SDS011;61381;50.118;19.962;2022-07-09T12:16:50;2.35;;;1.98;;
73170;SDS011;61381;50.118;19.962;2022-07-09T12:21:51;2.45;;;2.00;;
73170;SDS011;61381;50.118;19.962;2022-07-09T12:26:52;3.85;;;2.03;;
73170;SDS011;61381;50.118;19.962;2022-07-09T12:31:52;2.63;;;1.98;;
73170;SDS011;61381;50.118;19.962;2022-07-09T12:36:53;5.30;;;2.50;;
73170;SDS011;61381;50.118;19.962;2022-07-09T12:41:54;2.30;;;2.10;;
73170;SDS011;61381;50.118;19.962;2022-07-09T12:46:55;4.20;;;2.22;;
73170;SDS011;61381;50.118;19.962;2022-07-09T12:51:56;2.50;;;1.80;;
73170;SDS011;61381;50.118;19.962;2022-07-09T12:56:56;3.15;;;2.35;;
73170;SDS011;61381;50.118;19.962;2022-07-09T13:01:57;4.90;;;2.10;;
73170;SDS011;61381;50.118;19.962;2022-07-09T13:06:58;4.50;;;2.28;;
73170;SDS011;61381;50.118;19.962;2022-07-09T13:11:58;2.80;;;2.05;;
73170;SDS011;61381;50.118;19.962;2022-07-09T13:16:59;4.20;;;2.30;;
73170;SDS011;61381;50.118;19.962;2022-07-09T13:21:59;4.28;;;2.10;;
73170;SDS011;61381;50.118;19.962;2022-07-09T13:27:00;2.80;;;2.05;;
73170;SDS011;61381;50.118;19.962;2022-07-09T13:32:01;2.47;;;1.70;;
73170;SDS011;61381;50.118;19.962;2022-07-09T13:37:03;2.72;;;1.25;;
73170;SDS011;61381;50.118;19.962;2022-07-09T13:42:03;5.15;;;1.50;;
73170;SDS011;61381;50.118;19.962;2022-07-09T13:47:04;1.92;;;1.23;;
73170;SDS011;61381;50.118;19.962;2022-07-09T13:52:05;3.53;;;1.40;;
73170;SDS011;61381;50.118;19.962;2022-07-09T13:57:06;2.55;;;1.40;;
73170;SDS011;61381;50.118;19.962;2022-07-09T14:02:07;2.47;;;1.60;;
73170;SDS011;61381;50.118;19.962;2022-07-09T14:07:07;2.72;;;1.00;;
73170;SDS011;61381;50.118;19.962;2022-07-09T14:12:08;1.98;;;1.13;;
73170;SDS011;61381;50.118;19.962;2022-07-09T14:17:09;2.55;;;1.33;;
73170;SDS011;61381;50.118;19.962;2022-07-09T14:22:10;2.67;;;1.33;;
73170;SDS011;61381;50.118;19.962;2022-07-09T14:27:11;1.50;;;1.20;;
73170;SDS011;61381;50.118;19.962;2022-07-09T14:32:12;1.50;;;1.20;;
73170;SDS011;61381;50.118;19.962;2022-07-09T14:37:13;2.10;;;1.27;;
73170;SDS011;61381;50.118;19.962;2022-07-09T14:42:13;3.03;;;1.30;;
73170;SDS011;61381;50.118;19.962;2022-07-09T14:47:14;3.33;;;0.98;;
73170;SDS011;61381;50.118;19.962;2022-07-09T14:52:15;2.35;;;1.20;;
73170;SDS011;61381;50.118;19.962;2022-07-09T14:57:17;2.38;;;1.35;;
73170;SDS011;61381;50.118;19.962;2022-07-09T15:02:18;2.60;;;1.40;;
73170;SDS011;61381;50.118;19.962;2022-07-09T15:07:18;2.65;;;1.50;;
73170;SDS011;61381;50.118;19.962;2022-07-09T15:12:19;3.42;;;1.48;;
73170;SDS011;61381;50.118;19.962;2022-07-09T15:17:20;3.58;;;1.67;;
73170;SDS011;61381;50.118;19.962;2022-07-09T15:22:20;3.20;;;1.50;;
73170;SDS011;61381;50.118;19.962;2022-07-09T15:27:21;1.93;;;1.50;;
73170;SDS011;61381;50.118;19.962;2022-07-09T15:32:21;1.95;;;1.25;;
73170;SDS011;61381;50.118;19.962;2022-07-09T15:37:22;1.92;;;1.45;;
73170;SDS011;61381;50.118;19.962;2022-07-09T15:42:24;2.97;;;1.38;;
73170;SDS011;61381;50.118;19.962;2022-07-09T15:47:24;2.13;;;1.60;;
73170;SDS011;61381;50.118;19.962;2022-07-09T15:52:25;2.13;;;1.80;;
73170;SDS011;61381;50.118;19.962;2022-07-09T15:57:26;2.92;;;1.90;;
73170;SDS011;61381;50.118;19.962;2022-07-09T16:02:27;1.90;;;1.70;;
73170;SDS011;61381;50.118;19.962;2022-07-09T16:07:27;2.83;;;2.10;;
73170;SDS011;61381;50.118;19.962;2022-07-09T16:12:28;2.75;;;1.52;;
73170;SDS011;61381;50.118;19.962;2022-07-09T16:17:28;3.63;;;2.03;;
73170;SDS011;61381;50.118;19.962;2022-07-09T16:22:29;2.38;;;1.60;;
73170;SDS011;61381;50.118;19.962;2022-07-09T16:27:30;1.98;;;1.40;;
73170;SDS011;61381;50.118;19.962;2022-07-09T16:32:30;2.65;;;1.60;;
73170;SDS011;61381;50.118;19.962;2022-07-09T16:37:31;3.23;;;1.60;;
73170;SDS011;61381;50.118;19.962;2022-07-09T16:42:31;2.08;;;1.27;;
73170;SDS011;61381;50.118;19.962;2022-07-09T16:47:32;2.78;;;1.30;;
73170;SDS011;61381;50.118;19.962;2022-07-09T16:52:33;3.90;;;1.52;;
73170;SDS011;61381;50.118;19.962;2022-07-09T16:57:34;3.38;;;1.70;;
73170;SDS011;61381;50.118;19.962;2022-07-09T17:02:35;3.30;;;2.20;;
73170;SDS011;61381;50.118;19.962;2022-07-09T17:07:36;3.45;;;2.13;;
73170;SDS011;61381;50.118;19.962;2022-07-09T17:12:36;7.20;;;2.58;;
73170;SDS011;61381;50.118;19.962;2022-07-09T17:17:37;7.60;;;4.25;;
73170;SDS011;61381;50.118;19.962;2022-07-09T17:22:38;9.95;;;5.20;;
73170;SDS011;61381;50.118;19.962;2022-07-09T17:27:38;9.10;;;5.50;;
73170;SDS011;61381;50.118;19.962;2022-07-09T17:32:39;6.47;;;3.13;;
73170;SDS011;61381;50.118;19.962;2022-07-09T17:37:40;5.15;;;3.08;;
73170;SDS011;61381;50.118;19.962;2022-07-09T17:42:41;4.30;;;2.30;;
73170;SDS011;61381;50.118;19.962;2022-07-09T17:47:42;3.15;;;2.08;;
73170;SDS011;61381;50.118;19.962;2022-07-09T17:52:44;4.88;;;2.58;;
73170;SDS011;61381;50.118;19.962;2022-07-09T17:57:48;4.05;;;2.20;;
73170;SDS011;61381;50.118;19.962;2022-07-09T18:02:54;4.00;;;1.90;;
73170;SDS011;61381;50.118;19.962;2022-07-09T18:07:55;2.55;;;1.80;;
73170;SDS011;61381;50.118;19.962;2022-07-09T18:12:56;4.03;;;1.70;;
73170;SDS011;61381;50.118;19.962;2022-07-09T18:17:56;4.07;;;2.05;;
73170;SDS011;61381;50.118;19.962;2022-07-09T18:22:57;4.05;;;2.10;;
73170;SDS011;61381;50.118;19.962;2022-07-09T18:27:57;3.88;;;2.50;;
73170;SDS011;61381;50.118;19.962;2022-07-09T18:32:58;5.55;;;2.92;;
73170;SDS011;61381;50.118;19.962;2022-07-09T18:37:59;10.40;;;4.60;;
73170;SDS011;61381;50.118;19.962;2022-07-09T18:42:59;7.10;;;2.88;;
73170;SDS011;61381;50.118;19.962;2022-07-09T18:48:00;4.37;;;2.77;;
73170;SDS011;61381;50.118;19.962;2022-07-09T18:53:01;3.35;;;2.40;;
73170;SDS011;61381;50.118;19.962;2022-07-09T18:58:03;4.60;;;2.67;;
73170;SDS011;61381;50.118;19.962;2022-07-09T19:03:04;5.18;;;2.42;;
73170;SDS011;61381;50.118;19.962;2022-07-09T19:08:04;3.97;;;2.25;;
73170;SDS011;61381;50.118;19.962;2022-07-09T19:13:05;3.63;;;2.65;;
73170;SDS011;61381;50.118;19.962;2022-07-09T19:18:05;6.75;;;4.25;;
73170;SDS011;61381;50.118;19.962;2022-07-09T19:23:06;9.13;;;6.55;;
73170;SDS011;61381;50.118;19.962;2022-07-09T19:28:06;7.60;;;4.90;;
73170;SDS011;61381;50.118;19.962;2022-07-09T19:33:07;7.82;;;4.43;;
73170;SDS011;61381;50.118;19.962;2022-07-09T19:38:08;5.20;;;3.55;;
73170;SDS011;61381;50.118;19.962;2022-07-09T19:43:08;7.90;;;4.07;;
73170;SDS011;61381;50.118;19.962;2022-07-09T19:48:09;10.60;;;3.95;;
73170;SDS011;61381;50.118;19.962;2022-07-09T19:53:09;5.30;;;4.15;;
73170;SDS011;61381;50.118;19.962;2022-07-09T19:58:10;6.55;;;3.55;;
73170;SDS011;61381;50.118;19.962;2022-07-09T20:03:12;8.35;;;4.20;;
73170;SDS011;61381;50.118;19.962;2022-07-09T20:08:13;7.53;;;4.50;;
73170;SDS011;61381;50.118;19.962;2022-07-09T20:13:13;11.23;;;6.03;;
73170;SDS011;61381;50.118;19.962;2022-07-09T20:18:14;16.38;;;7.53;;
73170;SDS011;61381;50.118;19.962;2022-07-09T20:23:15;10.35;;;5.30;;
73170;SDS011;61381;50.118;19.962;2022-07-09T20:28:16;9.63;;;4.82;;
73170;SDS011;61381;50.118;19.962;2022-07-09T20:33:16;8.15;;;4.70;;
73170;SDS011;61381;50.118;19.962;2022-07-09T20:38:17;7.78;;;4.43;;
73170;SDS011;61381;50.118;19.962;2022-07-09T20:43:17;6.53;;;4.28;;
73170;SDS011;61381;50.118;19.962;2022-07-09T20:48:18;12.13;;;6.93;;
73170;SDS011;61381;50.118;19.962;2022-07-09T20:53:19;7.13;;;4.28;;
73170;SDS011;61381;50.118;19.962;2022-07-09T20:58:19;6.05;;;4.15;;
73170;SDS011;61381;50.118;19.962;2022-07-09T21:03:20;7.45;;;3.83;;
73170;SDS011;61381;50.118;19.962;2022-07-09T21:08:20;6.45;;;4.25;;
73170;SDS011;61381;50.118;19.962;2022-07-09T21:13:21;10.43;;;5.43;;
73170;SDS011;61381;50.118;19.962;2022-07-09T21:18:21;13.27;;;5.87;;
73170;SDS011;61381;50.118;19.962;2022-07-09T21:23:22;7.57;;;4.05;;
73170;SDS011;61381;50.118;19.962;2022-07-09T21:28:22;12.70;;;5.57;;
73170;SDS011;61381;50.118;19.962;2022-07-09T21:33:23;7.78;;;4.47;;
73170;SDS011;61381;50.118;19.962;2022-07-09T21:38:24;91.35;;;21.73;;
73170;SDS011;61381;50.118;19.962;2022-07-09T21:43:25;20.33;;;6.93;;
73170;SDS011;61381;50.118;19.962;2022-07-09T21:48:25;21.67;;;7.28;;
73170;SDS011;61381;50.118;19.962;2022-07-09T21:53:26;52.63;;;16.33;;
73170;SDS011;61381;50.118;19.962;2022-07-09T21:58:27;16.92;;;7.53;;
73170;SDS011;61381;50.118;19.962;2022-07-09T22:03:27;14.15;;;6.13;;
73170;SDS011;61381;50.118;19.962;2022-07-09T22:08:28;11.05;;;4.93;;
73170;SDS011;61381;50.118;19.962;2022-07-09T22:13:29;15.07;;;5.90;;
73170;SDS011;61381;50.118;19.962;2022-07-09T22:18:29;11.65;;;5.30;;
73170;SDS011;61381;50.118;19.962;2022-07-09T22:23:30;11.52;;;4.93;;
73170;SDS011;61381;50.118;19.962;2022-07-09T22:28:30;8.48;;;4.32;;
73170;SDS011;61381;50.118;19.962;2022-07-09T22:33:31;10.52;;;4.75;;
73170;SDS011;61381;50.118;19.962;2022-07-09T22:38:31;7.57;;;4.30;;
73170;SDS011;61381;50.118;19.962;2022-07-09T22:43:32;8.57;;;4.70;;
73170;SDS011;61381;50.118;19.962;2022-07-09T22:48:33;7.22;;;4.82;;
73170;SDS011;61381;50.118;19.962;2022-07-09T22:53:34;9.02;;;4.68;;
73170;SDS011;61381;50.118;19.962;2022-07-09T22:58:34;7.80;;;4.45;;
73170;SDS011;61381;50.118;19.962;2022-07-09T23:03:35;8.70;;;4.93;;
73170;SDS011;61381;50.118;19.962;2022-07-09T23:08:36;11.45;;;4.88;;
73170;SDS011;61381;50.118;19.962;2022-07-09T23:13:36;8.63;;;4.80;;
73170;SDS011;61381;50.118;19.962;2022-07-09T23:18:37;10.02;;;5.10;;
73170;SDS011;61381;50.118;19.962;2022-07-09T23:23:37;8.30;;;4.83;;
73170;SDS011;61381;50.118;19.962;2022-07-09T23:28:38;7.55;;;4.65;;
73170;SDS011;61381;50.118;19.962;2022-07-09T23:33:39;8.23;;;4.30;;
73170;SDS011;61381;50.118;19.962;2022-07-09T23:38:40;10.60;;;5.30;;
73170;SDS011;61381;50.118;19.962;2022-07-09T23:43:41;8.38;;;4.35;;
73170;SDS011;61381;50.118;19.962;2022-07-09T23:48:42;7.57;;;4.43;;
73170;SDS011;61381;50.118;19.962;2022-07-09T23:53:43;9.10;;;4.95;;
73170;SDS011;61381;50.118;19.962;2022-07-09T23:58:43;11.93;;;5.32;;
